sensor_id;sensor_type;location;lat;lon;timestamp;pressure;altitude;pressure_sealevel;temperature;humidity
49040;BME280;36811;49.732;13.402;2022-10-31T00:02:19;98310.44;;;9.63;94.98
49040;BME280;36811;49.732;13.402;2022-10-31T00:04:45;98310.19;;;9.65;95.67
49040;BME280;36811;49.732;13.402;2022-10-31T00:07:11;98314.09;;;9.74;95.64
49040;BME280;36811;49.732;13.402;2022-10-31T00:09:36;98314.28;;;9.84;94.71
49040;BME280;36811;49.732;13.402;2022-10-31T00:12:02;98318.06;;;9.88;95.19
49040;BME280;36811;49.732;13.402;2022-10-31T00:14:27;98313.88;;;9.92;95.76
49040;BME280;36811;49.732;13.402;2022-10-31T00:16:53;98307.72;;;10.03;95.06
49040;BME280;36811;49.732;13.402;2022-10-31T00:19:18;98312.44;;;10.12;95.47
49040;BME280;36811;49.732;13.402;2022-10-31T00:21:44;98314.13;;;10.18;95.06
49040;BME280;36811;49.732;13.402;2022-10-31T00:24:10;98321.66;;;10.22;94.92
49040;BME280;36811;49.732;13.402;2022-10-31T00:26:36;98317.19;;;10.27;94.72
49040;BME280;36811;49.732;13.402;2022-10-31T00:29:02;98320.09;;;10.26;94.52
49040;BME280;36811;49.732;13.402;2022-10-31T00:31:28;98313.66;;;10.22;94.83
49040;BME280;36811;49.732;13.402;2022-10-31T00:33:54;98317.59;;;10.19;94.33
49040;BME280;36811;49.732;13.402;2022-10-31T00:36:20;98318.31;;;10.14;94.85
49040;BME280;36811;49.732;13.402;2022-10-31T00:38:47;98315.44;;;10.04;94.76
49040;BME280;36811;49.732;13.402;2022-10-31T00:41:15;98309.16;;;9.94;95.19
49040;BME280;36811;49.732;13.402;2022-10-31T00:43:42;98316.44;;;9.87;95.31
49040;BME280;36811;49.732;13.402;2022-10-31T00:46:10;98314.97;;;9.79;95.44
49040;BME280;36811;49.732;13.402;2022-10-31T00:48:36;98320.09;;;9.69;95.78
49040;BME280;36811;49.732;13.402;2022-10-31T00:51:01;98327.97;;;9.64;95.39
49040;BME280;36811;49.732;13.402;2022-10-31T00:53:27;98323.94;;;9.62;95.88
49040;BME280;36811;49.732;13.402;2022-10-31T00:55:52;98319.94;;;9.47;95.78
49040;BME280;36811;49.732;13.402;2022-10-31T00:58:18;98314.41;;;9.37;96.86
49040;BME280;36811;49.732;13.402;2022-10-31T01:00:44;98304.72;;;9.31;97.23
49040;BME280;36811;49.732;13.402;2022-10-31T01:03:11;98303.13;;;9.30;97.13
49040;BME280;36811;49.732;13.402;2022-10-31T01:05:37;98305.88;;;9.35;97.31
49040;BME280;36811;49.732;13.402;2022-10-31T01:08:03;98313.50;;;9.32;97.19
49040;BME280;36811;49.732;13.402;2022-10-31T01:10:28;98305.22;;;9.28;97.32
49040;BME280;36811;49.732;13.402;2022-10-31T01:12:54;98309.03;;;9.21;97.67
49040;BME280;36811;49.732;13.402;2022-10-31T01:15:21;98302.56;;;9.17;97.72
49040;BME280;36811;49.732;13.402;2022-10-31T01:17:47;98305.56;;;9.09;98.53
49040;BME280;36811;49.732;13.402;2022-10-31T01:20:15;98300.97;;;9.04;98.96
49040;BME280;36811;49.732;13.402;2022-10-31T01:22:41;98292.44;;;9.02;99.19
49040;BME280;36811;49.732;13.402;2022-10-31T01:25:08;98296.47;;;9.05;99.25
49040;BME280;36811;49.732;13.402;2022-10-31T01:27:34;98301.78;;;9.05;98.88
49040;BME280;36811;49.732;13.402;2022-10-31T01:30:00;98298.31;;;9.04;98.80
49040;BME280;36811;49.732;13.402;2022-10-31T01:32:26;98302.72;;;9.10;99.42
49040;BME280;36811;49.732;13.402;2022-10-31T01:34:54;98304.91;;;9.13;99.29
49040;BME280;36811;49.732;13.402;2022-10-31T01:37:20;98302.81;;;9.15;98.77
49040;BME280;36811;49.732;13.402;2022-10-31T01:39:48;98300.38;;;9.14;99.53
49040;BME280;36811;49.732;13.402;2022-10-31T01:42:22;98307.88;;;9.17;98.79
49040;BME280;36811;49.732;13.402;2022-10-31T01:44:57;98297.38;;;9.22;100.00
49040;BME280;36811;49.732;13.402;2022-10-31T01:47:34;98303.63;;;9.16;100.00
49040;BME280;36811;49.732;13.402;2022-10-31T01:50:06;98303.88;;;9.03;100.00
49040;BME280;36811;49.732;13.402;2022-10-31T01:52:42;98304.31;;;8.88;99.62
49040;BME280;36811;49.732;13.402;2022-10-31T01:55:13;98290.25;;;8.99;100.00
49040;BME280;36811;49.732;13.402;2022-10-31T01:57:43;98289.44;;;9.10;100.00
49040;BME280;36811;49.732;13.402;2022-10-31T02:00:10;98297.25;;;9.17;100.00
49040;BME280;36811;49.732;13.402;2022-10-31T02:02:37;98289.53;;;9.15;100.00
49040;BME280;36811;49.732;13.402;2022-10-31T02:05:06;98283.16;;;9.28;100.00
49040;BME280;36811;49.732;13.402;2022-10-31T02:07:42;98289.72;;;9.37;100.00
49040;BME280;36811;49.732;13.402;2022-10-31T02:10:08;98286.94;;;9.43;100.00
49040;BME280;36811;49.732;13.402;2022-10-31T02:12:34;98295.22;;;9.47;100.00
49040;BME280;36811;49.732;13.402;2022-10-31T02:15:02;98300.91;;;9.39;100.00
49040;BME280;36811;49.732;13.402;2022-10-31T02:17:29;98286.75;;;9.33;100.00
49040;BME280;36811;49.732;13.402;2022-10-31T02:20:10;98287.41;;;9.40;100.00
49040;BME280;36811;49.732;13.402;2022-10-31T02:23:48;98297.22;;;9.40;100.00
49040;BME280;36811;49.732;13.402;2022-10-31T02:26:31;98298.34;;;9.44;100.00
49040;BME280;36811;49.732;13.402;2022-10-31T02:34:40;98296.59;;;9.49;100.00
49040;BME280;36811;49.732;13.402;2022-10-31T02:37:17;98298.06;;;9.57;100.00
49040;BME280;36811;49.732;13.402;2022-10-31T02:40:17;98302.00;;;9.66;100.00
49040;BME280;36811;49.732;13.402;2022-10-31T02:43:05;98302.31;;;9.70;100.00
49040;BME280;36811;49.732;13.402;2022-10-31T02:45:38;98306.50;;;9.66;100.00
49040;BME280;36811;49.732;13.402;2022-10-31T02:48:11;98297.97;;;9.64;100.00
49040;BME280;36811;49.732;13.402;2022-10-31T02:50:42;98300.47;;;9.70;100.00
49040;BME280;36811;49.732;13.402;2022-10-31T02:53:14;98303.78;;;9.77;100.00
49040;BME280;36811;49.732;13.402;2022-10-31T02:55:51;98299.03;;;9.79;100.00
49040;BME280;36811;49.732;13.402;2022-10-31T02:58:21;98301.22;;;9.82;100.00
49040;BME280;36811;49.732;13.402;2022-10-31T03:08:44;98300.81;;;9.74;100.00
49040;BME280;36811;49.732;13.402;2022-10-31T03:11:12;98293.78;;;9.68;100.00
49040;BME280;36811;49.732;13.402;2022-10-31T03:13:52;98297.00;;;9.70;100.00
49040;BME280;36811;49.732;13.402;2022-10-31T03:19:08;98297.47;;;9.67;100.00
49040;BME280;36811;49.732;13.402;2022-10-31T03:21:46;98305.00;;;9.58;100.00
49040;BME280;36811;49.732;13.402;2022-10-31T03:24:15;98297.41;;;9.50;100.00
49040;BME280;36811;49.732;13.402;2022-10-31T03:26:47;98305.63;;;9.37;100.00
49040;BME280;36811;49.732;13.402;2022-10-31T03:29:16;98308.09;;;9.27;100.00
49040;BME280;36811;49.732;13.402;2022-10-31T03:31:53;98311.56;;;9.27;100.00
49040;BME280;36811;49.732;13.402;2022-10-31T03:34:21;98319.16;;;9.24;100.00
49040;BME280;36811;49.732;13.402;2022-10-31T03:36:50;98322.97;;;9.28;100.00
49040;BME280;36811;49.732;13.402;2022-10-31T03:39:19;98327.94;;;9.24;100.00
49040;BME280;36811;49.732;13.402;2022-10-31T03:41:53;98331.88;;;9.22;100.00
49040;BME280;36811;49.732;13.402;2022-10-31T03:44:22;98335.91;;;9.24;100.00
49040;BME280;36811;49.732;13.402;2022-10-31T03:46:49;98340.91;;;9.21;99.53
49040;BME280;36811;49.732;13.402;2022-10-31T03:49:16;98338.91;;;9.16;99.20
49040;BME280;36811;49.732;13.402;2022-10-31T03:51:59;98334.09;;;9.13;98.66
49040;BME280;36811;49.732;13.402;2022-10-31T03:54:42;98335.25;;;9.06;98.50
49040;BME280;36811;49.732;13.402;2022-10-31T03:57:27;98337.56;;;9.02;97.87
49040;BME280;36811;49.732;13.402;2022-10-31T04:00:03;98343.44;;;8.92;98.22
49040;BME280;36811;49.732;13.402;2022-10-31T04:02:32;98339.72;;;8.93;98.19
49040;BME280;36811;49.732;13.402;2022-10-31T04:04:59;98343.66;;;8.91;97.77
49040;BME280;36811;49.732;13.402;2022-10-31T04:07:29;98347.81;;;8.87;97.36
49040;BME280;36811;49.732;13.402;2022-10-31T04:09:57;98343.53;;;8.86;97.82
49040;BME280;36811;49.732;13.402;2022-10-31T04:12:27;98341.59;;;8.81;97.58
49040;BME280;36811;49.732;13.402;2022-10-31T04:14:55;98353.91;;;8.76;96.69
49040;BME280;36811;49.732;13.402;2022-10-31T04:17:23;98340.06;;;8.74;96.89
49040;BME280;36811;49.732;13.402;2022-10-31T04:19:53;98340.78;;;8.69;96.96
49040;BME280;36811;49.732;13.402;2022-10-31T04:22:18;98340.09;;;8.62;97.22
49040;BME280;36811;49.732;13.402;2022-10-31T04:24:44;98339.47;;;8.60;96.83
49040;BME280;36811;49.732;13.402;2022-10-31T04:27:11;98340.75;;;8.58;97.07
49040;BME280;36811;49.732;13.402;2022-10-31T04:29:36;98344.44;;;8.57;97.15
49040;BME280;36811;49.732;13.402;2022-10-31T04:32:02;98351.22;;;8.53;97.15
49040;BME280;36811;49.732;13.402;2022-10-31T04:34:27;98356.19;;;8.49;96.80
49040;BME280;36811;49.732;13.402;2022-10-31T04:36:53;98348.81;;;8.40;97.06
49040;BME280;36811;49.732;13.402;2022-10-31T04:39:18;98346.81;;;8.35;96.93
49040;BME280;36811;49.732;13.402;2022-10-31T04:41:44;98356.84;;;8.33;97.51
49040;BME280;36811;49.732;13.402;2022-10-31T04:44:09;98355.81;;;8.34;97.08
49040;BME280;36811;49.732;13.402;2022-10-31T04:46:35;98355.25;;;8.32;96.84
49040;BME280;36811;49.732;13.402;2022-10-31T04:49:00;98347.78;;;8.22;96.67
49040;BME280;36811;49.732;13.402;2022-10-31T04:51:26;98349.84;;;8.20;96.45
49040;BME280;36811;49.732;13.402;2022-10-31T04:53:52;98346.25;;;8.15;96.98
49040;BME280;36811;49.732;13.402;2022-10-31T04:56:17;98347.06;;;8.04;96.74
49040;BME280;36811;49.732;13.402;2022-10-31T04:58:43;98354.28;;;7.97;97.17
49040;BME280;36811;49.732;13.402;2022-10-31T05:01:08;98344.47;;;7.97;97.33
49040;BME280;36811;49.732;13.402;2022-10-31T05:03:34;98349.44;;;7.94;96.79
49040;BME280;36811;49.732;13.402;2022-10-31T05:05:59;98349.50;;;7.87;96.72
49040;BME280;36811;49.732;13.402;2022-10-31T05:08:25;98349.97;;;7.84;96.85
49040;BME280;36811;49.732;13.402;2022-10-31T05:10:50;98351.88;;;7.77;97.39
49040;BME280;36811;49.732;13.402;2022-10-31T05:13:17;98346.31;;;7.67;97.57
49040;BME280;36811;49.732;13.402;2022-10-31T05:15:42;98355.34;;;7.59;97.95
49040;BME280;36811;49.732;13.402;2022-10-31T05:18:08;98350.78;;;7.66;97.88
49040;BME280;36811;49.732;13.402;2022-10-31T05:20:34;98354.34;;;7.60;97.70
49040;BME280;36811;49.732;13.402;2022-10-31T05:22:59;98343.38;;;7.57;97.26
49040;BME280;36811;49.732;13.402;2022-10-31T05:25:27;98364.06;;;7.48;97.63
49040;BME280;36811;49.732;13.402;2022-10-31T05:27:55;98352.13;;;7.39;98.05
49040;BME280;36811;49.732;13.402;2022-10-31T05:30:23;98365.94;;;7.41;98.05
49040;BME280;36811;49.732;13.402;2022-10-31T05:32:50;98356.63;;;7.39;98.05
49040;BME280;36811;49.732;13.402;2022-10-31T05:35:22;98365.16;;;7.41;97.76
49040;BME280;36811;49.732;13.402;2022-10-31T05:37:48;98365.38;;;7.39;97.71
49040;BME280;36811;49.732;13.402;2022-10-31T05:40:15;98359.06;;;7.40;97.35
49040;BME280;36811;49.732;13.402;2022-10-31T05:42:42;98361.13;;;7.38;97.28
49040;BME280;36811;49.732;13.402;2022-10-31T05:45:13;98369.50;;;7.35;97.71
49040;BME280;36811;49.732;13.402;2022-10-31T05:47:39;98361.56;;;7.35;97.08
49040;BME280;36811;49.732;13.402;2022-10-31T05:50:06;98363.63;;;7.33;97.41
49040;BME280;36811;49.732;13.402;2022-10-31T05:52:33;98360.38;;;7.31;97.62
49040;BME280;36811;49.732;13.402;2022-10-31T05:54:59;98364.63;;;7.32;97.80
49040;BME280;36811;49.732;13.402;2022-10-31T05:57:25;98371.75;;;7.32;97.62
49040;BME280;36811;49.732;13.402;2022-10-31T05:59:51;98369.69;;;7.34;97.66
49040;BME280;36811;49.732;13.402;2022-10-31T06:02:20;98383.31;;;7.37;97.42
49040;BME280;36811;49.732;13.402;2022-10-31T06:04:45;98374.22;;;7.33;97.24
49040;BME280;36811;49.732;13.402;2022-10-31T06:07:11;98376.31;;;7.25;97.50
49040;BME280;36811;49.732;13.402;2022-10-31T06:09:37;98376.31;;;7.25;97.55
49040;BME280;36811;49.732;13.402;2022-10-31T06:12:02;98371.19;;;7.30;97.47
49040;BME280;36811;49.732;13.402;2022-10-31T06:14:28;98380.09;;;7.35;97.26
49040;BME280;36811;49.732;13.402;2022-10-31T06:16:55;98378.59;;;7.39;97.02
49040;BME280;36811;49.732;13.402;2022-10-31T06:19:21;98377.78;;;7.39;97.34
49040;BME280;36811;49.732;13.402;2022-10-31T06:21:47;98367.28;;;7.32;96.66
49040;BME280;36811;49.732;13.402;2022-10-31T06:24:12;98374.63;;;7.30;96.95
49040;BME280;36811;49.732;13.402;2022-10-31T06:26:38;98370.50;;;7.34;97.52
49040;BME280;36811;49.732;13.402;2022-10-31T06:29:04;98377.59;;;7.40;97.76
49040;BME280;36811;49.732;13.402;2022-10-31T06:31:30;98384.19;;;7.49;97.40
49040;BME280;36811;49.732;13.402;2022-10-31T06:33:56;98374.78;;;7.53;97.20
49040;BME280;36811;49.732;13.402;2022-10-31T06:36:21;98376.69;;;7.64;97.11
49040;BME280;36811;49.732;13.402;2022-10-31T06:38:47;98377.41;;;7.72;96.87
49040;BME280;36811;49.732;13.402;2022-10-31T06:41:12;98369.31;;;7.85;97.46
49040;BME280;36811;49.732;13.402;2022-10-31T06:43:38;98377.66;;;8.00;96.00
49040;BME280;36811;49.732;13.402;2022-10-31T06:46:04;98381.63;;;8.09;95.64
49040;BME280;36811;49.732;13.402;2022-10-31T06:48:31;98383.34;;;8.15;95.35
49040;BME280;36811;49.732;13.402;2022-10-31T06:51:00;98389.56;;;8.27;95.37
49040;BME280;36811;49.732;13.402;2022-10-31T06:53:28;98387.19;;;8.37;95.43
49040;BME280;36811;49.732;13.402;2022-10-31T06:55:57;98391.69;;;8.48;95.01
49040;BME280;36811;49.732;13.402;2022-10-31T06:58:22;98385.84;;;8.69;94.73
49040;BME280;36811;49.732;13.402;2022-10-31T07:00:48;98387.56;;;8.75;93.30
49040;BME280;36811;49.732;13.402;2022-10-31T07:03:14;98395.91;;;8.90;93.78
49040;BME280;36811;49.732;13.402;2022-10-31T07:05:41;98393.38;;;9.30;94.33
49040;BME280;36811;49.732;13.402;2022-10-31T07:08:10;98382.13;;;9.63;93.02
49040;BME280;36811;49.732;13.402;2022-10-31T07:10:38;98377.34;;;9.88;91.75
49040;BME280;36811;49.732;13.402;2022-10-31T07:13:06;98392.75;;;10.03;90.42
49040;BME280;36811;49.732;13.402;2022-10-31T07:15:34;98393.97;;;10.24;89.11
49040;BME280;36811;49.732;13.402;2022-10-31T07:18:02;98395.16;;;10.44;89.10
49040;BME280;36811;49.732;13.402;2022-10-31T07:20:29;98394.44;;;10.65;88.98
49040;BME280;36811;49.732;13.402;2022-10-31T07:22:55;98408.06;;;11.19;87.59
49040;BME280;36811;49.732;13.402;2022-10-31T07:25:22;98410.28;;;11.60;87.47
49040;BME280;36811;49.732;13.402;2022-10-31T07:27:48;98414.53;;;11.78;85.07
49040;BME280;36811;49.732;13.402;2022-10-31T07:30:14;98408.00;;;12.12;85.30
49040;BME280;36811;49.732;13.402;2022-10-31T07:32:45;98411.84;;;12.21;84.93
49040;BME280;36811;49.732;13.402;2022-10-31T07:35:16;98411.84;;;12.48;82.21
49040;BME280;36811;49.732;13.402;2022-10-31T07:37:44;98416.16;;;13.07;84.75
49040;BME280;36811;49.732;13.402;2022-10-31T07:40:10;98416.59;;;13.78;83.54
49040;BME280;36811;49.732;13.402;2022-10-31T07:42:37;98412.00;;;13.68;77.49
49040;BME280;36811;49.732;13.402;2022-10-31T07:45:05;98415.13;;;13.50;77.88
49040;BME280;36811;49.732;13.402;2022-10-31T07:47:44;98414.31;;;13.50;78.51
49040;BME280;36811;49.732;13.402;2022-10-31T07:50:16;98410.22;;;13.94;78.83
49040;BME280;36811;49.732;13.402;2022-10-31T07:52:41;98418.38;;;14.19;78.17
49040;BME280;36811;49.732;13.402;2022-10-31T07:55:08;98417.28;;;14.15;75.73
49040;BME280;36811;49.732;13.402;2022-10-31T07:57:33;98422.09;;;14.13;76.41
49040;BME280;36811;49.732;13.402;2022-10-31T08:00:00;98412.75;;;14.16;75.83
49040;BME280;36811;49.732;13.402;2022-10-31T08:02:26;98409.16;;;14.67;76.24
49040;BME280;36811;49.732;13.402;2022-10-31T08:04:52;98410.75;;;14.73;74.52
49040;BME280;36811;49.732;13.402;2022-10-31T08:07:18;98408.06;;;14.78;71.93
49040;BME280;36811;49.732;13.402;2022-10-31T08:09:43;98408.53;;;14.40;72.17
49040;BME280;36811;49.732;13.402;2022-10-31T08:12:09;98405.38;;;14.63;74.37
49040;BME280;36811;49.732;13.402;2022-10-31T08:14:35;98407.00;;;14.79;72.04
49040;BME280;36811;49.732;13.402;2022-10-31T08:17:00;98406.72;;;14.86;73.32
49040;BME280;36811;49.732;13.402;2022-10-31T08:19:26;98406.16;;;15.39;73.07
49040;BME280;36811;49.732;13.402;2022-10-31T08:21:53;98400.25;;;15.62;71.52
49040;BME280;36811;49.732;13.402;2022-10-31T08:24:23;98399.88;;;15.89;71.72
49040;BME280;36811;49.732;13.402;2022-10-31T08:26:49;98397.25;;;15.74;72.09
49040;BME280;36811;49.732;13.402;2022-10-31T08:29:15;98406.69;;;15.56;72.05
49040;BME280;36811;49.732;13.402;2022-10-31T08:31:42;98400.66;;;15.95;71.77
49040;BME280;36811;49.732;13.402;2022-10-31T08:34:08;98406.66;;;16.30;69.33
49040;BME280;36811;49.732;13.402;2022-10-31T08:36:34;98411.09;;;16.60;69.20
49040;BME280;36811;49.732;13.402;2022-10-31T08:39:00;98398.03;;;17.16;68.11
49040;BME280;36811;49.732;13.402;2022-10-31T08:41:26;98397.22;;;16.87;67.29
49040;BME280;36811;49.732;13.402;2022-10-31T08:43:51;98398.44;;;17.28;67.62
49040;BME280;36811;49.732;13.402;2022-10-31T08:46:18;98390.97;;;16.58;68.25
49040;BME280;36811;49.732;13.402;2022-10-31T08:48:44;98400.91;;;16.03;68.06
49040;BME280;36811;49.732;13.402;2022-10-31T08:51:12;98397.97;;;15.95;68.95
49040;BME280;36811;49.732;13.402;2022-10-31T08:53:38;98385.59;;;16.58;69.03
49040;BME280;36811;49.732;13.402;2022-10-31T08:56:04;98379.53;;;17.38;66.34
49040;BME280;36811;49.732;13.402;2022-10-31T08:58:30;98386.31;;;17.59;66.31
49040;BME280;36811;49.732;13.402;2022-10-31T09:00:55;98378.81;;;17.56;63.75
49040;BME280;36811;49.732;13.402;2022-10-31T09:03:26;98382.66;;;17.98;65.40
49040;BME280;36811;49.732;13.402;2022-10-31T09:05:57;98368.44;;;18.72;62.98
49040;BME280;36811;49.732;13.402;2022-10-31T09:08:23;98368.66;;;18.38;62.65
49040;BME280;36811;49.732;13.402;2022-10-31T09:10:50;98374.63;;;18.72;62.15
49040;BME280;36811;49.732;13.402;2022-10-31T09:13:18;98368.22;;;18.50;61.57
49040;BME280;36811;49.732;13.402;2022-10-31T09:15:46;98364.13;;;18.89;62.87
49040;BME280;36811;49.732;13.402;2022-10-31T09:18:15;98371.50;;;19.30;60.90
49040;BME280;36811;49.732;13.402;2022-10-31T09:20:42;98367.16;;;19.61;61.04
49040;BME280;36811;49.732;13.402;2022-10-31T09:23:12;98368.38;;;19.55;58.51
49040;BME280;36811;49.732;13.402;2022-10-31T09:25:38;98356.69;;;19.14;58.90
49040;BME280;36811;49.732;13.402;2022-10-31T09:28:06;98359.25;;;19.51;59.35
49040;BME280;36811;49.732;13.402;2022-10-31T09:30:34;98363.63;;;20.15;58.18
49040;BME280;36811;49.732;13.402;2022-10-31T09:33:14;98357.25;;;20.11;57.57
49040;BME280;36811;49.732;13.402;2022-10-31T09:35:40;98358.75;;;20.75;56.62
49040;BME280;36811;49.732;13.402;2022-10-31T09:38:12;98360.13;;;20.86;56.74
49040;BME280;36811;49.732;13.402;2022-10-31T09:40:46;98355.84;;;21.38;55.43
49040;BME280;36811;49.732;13.402;2022-10-31T09:51:41;98357.31;;;20.19;56.54
49040;BME280;36811;49.732;13.402;2022-10-31T09:54:21;98346.84;;;20.98;54.77
49040;BME280;36811;49.732;13.402;2022-10-31T09:56:52;98349.06;;;21.49;54.30
49040;BME280;36811;49.732;13.402;2022-10-31T09:59:28;98349.31;;;20.14;54.75
49040;BME280;36811;49.732;13.402;2022-10-31T10:02:06;98353.34;;;19.76;56.75
49040;BME280;36811;49.732;13.402;2022-10-31T10:04:44;98349.56;;;19.63;56.47
49040;BME280;36811;49.732;13.402;2022-10-31T10:10:05;98348.59;;;19.73;57.50
49040;BME280;36811;49.732;13.402;2022-10-31T10:21:48;98337.22;;;20.25;57.30
49040;BME280;36811;49.732;13.402;2022-10-31T10:27:11;98325.38;;;20.35;56.27
49040;BME280;36811;49.732;13.402;2022-10-31T10:29:49;98319.03;;;20.53;56.59
49040;BME280;36811;49.732;13.402;2022-10-31T10:32:30;98317.28;;;20.21;55.18
49040;BME280;36811;49.732;13.402;2022-10-31T10:35:50;98311.06;;;21.01;55.32
49040;BME280;36811;49.732;13.402;2022-10-31T10:37:58;98314.38;;;21.60;53.63
49040;BME280;36811;49.732;13.402;2022-10-31T10:40:29;98310.69;;;22.12;52.63
49040;BME280;36811;49.732;13.402;2022-10-31T10:46:17;98300.31;;;21.10;53.17
49040;BME280;36811;49.732;13.402;2022-10-31T10:51:58;98301.81;;;21.24;54.09
49040;BME280;36811;49.732;13.402;2022-10-31T10:54:49;98294.34;;;20.99;53.12
49040;BME280;36811;49.732;13.402;2022-10-31T10:57:50;98288.31;;;20.71;53.65
49040;BME280;36811;49.732;13.402;2022-10-31T11:00:23;98289.06;;;20.94;53.94
49040;BME280;36811;49.732;13.402;2022-10-31T11:02:51;98283.59;;;21.08;51.81
49040;BME280;36811;49.732;13.402;2022-10-31T11:07:55;98288.22;;;20.63;53.88
49040;BME280;36811;49.732;13.402;2022-10-31T11:10:22;98282.81;;;20.63;53.00
49040;BME280;36811;49.732;13.402;2022-10-31T11:15:52;98270.91;;;21.65;52.51
49040;BME280;36811;49.732;13.402;2022-10-31T11:18:24;98269.41;;;21.41;52.12
49040;BME280;36811;49.732;13.402;2022-10-31T11:20:53;98260.53;;;21.58;52.21
49040;BME280;36811;49.732;13.402;2022-10-31T11:23:21;98264.88;;;21.76;52.33
49040;BME280;36811;49.732;13.402;2022-10-31T11:25:55;98262.81;;;21.82;52.02
49040;BME280;36811;49.732;13.402;2022-10-31T11:28:21;98253.44;;;22.39;51.35
49040;BME280;36811;49.732;13.402;2022-10-31T11:30:54;98261.91;;;22.46;51.41
49040;BME280;36811;49.732;13.402;2022-10-31T11:33:36;98254.38;;;22.60;50.97
49040;BME280;36811;49.732;13.402;2022-10-31T11:36:22;98248.50;;;22.75;50.93
49040;BME280;36811;49.732;13.402;2022-10-31T11:38:49;98243.44;;;23.03;51.31
49040;BME280;36811;49.732;13.402;2022-10-31T11:41:16;98247.63;;;22.92;52.04
49040;BME280;36811;49.732;13.402;2022-10-31T11:43:57;98241.56;;;23.33;50.34
49040;BME280;36811;49.732;13.402;2022-10-31T11:46:36;98240.91;;;22.98;51.25
49040;BME280;36811;49.732;13.402;2022-10-31T11:49:05;98241.09;;;22.93;50.29
49040;BME280;36811;49.732;13.402;2022-10-31T11:51:37;98240.75;;;22.95;50.69
49040;BME280;36811;49.732;13.402;2022-10-31T11:54:03;98228.41;;;22.68;51.45
49040;BME280;36811;49.732;13.402;2022-10-31T11:56:40;98229.25;;;23.35;50.83
49040;BME280;36811;49.732;13.402;2022-10-31T11:59:17;98220.50;;;23.68;50.55
49040;BME280;36811;49.732;13.402;2022-10-31T12:01:48;98222.25;;;23.34;49.66
49040;BME280;36811;49.732;13.402;2022-10-31T12:04:15;98214.38;;;22.49;51.21
49040;BME280;36811;49.732;13.402;2022-10-31T12:06:44;98217.25;;;23.07;51.83
49040;BME280;36811;49.732;13.402;2022-10-31T12:14:59;98208.38;;;22.90;49.00
49040;BME280;36811;49.732;13.402;2022-10-31T12:17:48;98199.16;;;22.82;47.92
49040;BME280;36811;49.732;13.402;2022-10-31T12:25:51;98189.41;;;21.92;51.13
49040;BME280;36811;49.732;13.402;2022-10-31T12:34:06;98185.66;;;23.03;49.22
49040;BME280;36811;49.732;13.402;2022-10-31T12:44:57;98175.00;;;22.98;49.88
49040;BME280;36811;49.732;13.402;2022-10-31T12:51:08;98165.69;;;23.07;50.56
49040;BME280;36811;49.732;13.402;2022-10-31T12:58:31;98161.03;;;23.16;49.63
49040;BME280;36811;49.732;13.402;2022-10-31T13:03:42;98151.38;;;23.57;48.66
49040;BME280;36811;49.732;13.402;2022-10-31T13:06:16;98151.81;;;23.09;49.09
49040;BME280;36811;49.732;13.402;2022-10-31T13:08:56;98145.28;;;22.55;49.37
49040;BME280;36811;49.732;13.402;2022-10-31T13:11:46;98143.84;;;22.57;49.85
49040;BME280;36811;49.732;13.402;2022-10-31T13:14:33;98143.88;;;22.66;50.33
49040;BME280;36811;49.732;13.402;2022-10-31T13:17:03;98146.44;;;22.45;49.95
49040;BME280;36811;49.732;13.402;2022-10-31T13:19:42;98130.41;;;23.07;50.08
49040;BME280;36811;49.732;13.402;2022-10-31T13:22:10;98138.16;;;24.09;48.83
49040;BME280;36811;49.732;13.402;2022-10-31T13:24:50;98135.72;;;24.73;48.23
49040;BME280;36811;49.732;13.402;2022-10-31T13:27:24;98124.97;;;25.00;46.75
49040;BME280;36811;49.732;13.402;2022-10-31T13:32:38;98124.34;;;23.40;49.24
49040;BME280;36811;49.732;13.402;2022-10-31T13:35:13;98131.25;;;23.28;49.98
49040;BME280;36811;49.732;13.402;2022-10-31T13:37:46;98113.28;;;23.65;48.47
49040;BME280;36811;49.732;13.402;2022-10-31T13:40:38;98115.91;;;23.53;49.68
49040;BME280;36811;49.732;13.402;2022-10-31T13:43:17;98114.28;;;23.11;50.98
49040;BME280;36811;49.732;13.402;2022-10-31T13:45:50;98103.34;;;23.69;49.87
49040;BME280;36811;49.732;13.402;2022-10-31T13:50:55;98105.16;;;22.86;51.07
49040;BME280;36811;49.732;13.402;2022-10-31T13:53:22;98099.78;;;22.77;51.46
49040;BME280;36811;49.732;13.402;2022-10-31T13:56:16;98099.78;;;22.23;52.23
49040;BME280;36811;49.732;13.402;2022-10-31T14:01:35;98095.47;;;22.30;52.70
49040;BME280;36811;49.732;13.402;2022-10-31T14:04:15;98097.94;;;21.97;53.77
49040;BME280;36811;49.732;13.402;2022-10-31T14:09:36;98093.75;;;22.26;53.16
49040;BME280;36811;49.732;13.402;2022-10-31T14:12:37;98096.94;;;22.19;53.09
49040;BME280;36811;49.732;13.402;2022-10-31T14:15:31;98101.41;;;22.15;53.18
49040;BME280;36811;49.732;13.402;2022-10-31T14:18:03;98096.50;;;22.00;53.33
49040;BME280;36811;49.732;13.402;2022-10-31T14:20:39;98093.63;;;21.79;53.80
49040;BME280;36811;49.732;13.402;2022-10-31T14:28:57;98082.19;;;21.65;54.62
49040;BME280;36811;49.732;13.402;2022-10-31T14:31:39;98083.78;;;21.58;54.74
49040;BME280;36811;49.732;13.402;2022-10-31T14:34:37;98082.16;;;21.48;54.99
49040;BME280;36811;49.732;13.402;2022-10-31T14:40:20;98078.28;;;20.98;56.34
49040;BME280;36811;49.732;13.402;2022-10-31T14:51:43;98065.19;;;20.35;58.52
49040;BME280;36811;49.732;13.402;2022-10-31T14:54:23;98061.69;;;20.34;58.87
49040;BME280;36811;49.732;13.402;2022-10-31T14:56:55;98057.59;;;20.45;58.65
49040;BME280;36811;49.732;13.402;2022-10-31T14:59:28;98060.31;;;20.45;58.93
49040;BME280;36811;49.732;13.402;2022-10-31T15:02:07;98062.56;;;20.21;59.76
49040;BME280;36811;49.732;13.402;2022-10-31T15:04:36;98056.91;;;20.00;60.42
49040;BME280;36811;49.732;13.402;2022-10-31T15:07:12;98054.19;;;20.00;60.59